Pagrindinis puslapis
METAR-TAF:

METAR-TAF

Oro uostai :

Sharurah, Saudo Arabija

platuma: 17-28N, ilguma: 047-07E, Aukštis: 720 m

Dabartinis oras

Ataskaita buvo paskelbta 47 minutes, ne 02:00 UTC
Vėjas 10 kt iš Rytų
Temperatūra 23°C
Drėgmė 27%
Slėgis 1016 hPa
Matomumas 10 km arba daugiau
nėra debesų žemiau 1500 m ir nėra kamuolinių lietaus debesų

METAR: OESH 010200Z 09010KT CAVOK 23/03 Q1016 NOSIG

Laikas: 05:47 (02:47 UTC)

Prognozė

Ataskaita buvo paskelbta 3 valandos ir 47 minutes, ne 23:00 UTC
Prognozė galioja nuo 01 metu 00 UTC su 02 metu 06 UTC
Vėjas 8 kt iš Rytų
Matomumas: 4000 m
dulkės
Tapsmas
nuo 01 metu 06 UTC su 01 metu 08 UTC
Vėjas 18 kt iš Rytų
Laikinai
nuo 01 metu 06 UTC su 01 metu 16 UTC
Matomumas: 1500 m
Dulkes pustymas
Tapsmas
nuo 01 metu 18 UTC su 01 metu 20 UTC
Vėjas 10 kt iš Rytų

TAF: OESH 312300Z 0100/0206 09008KT 4000 DU NSC BECMG 0106/0108 09018KT TEMPO 0106/0116 1500 BLDU BECMG 0118/0120 08010KT

Orai ataskaitas ir orų prognozės (METAR, TAF).

turimą stotys yra geltonos ir raudonos taškus žemėlapyje.

Perkelti pele per norėdami pamatyti stoties vardą.

Tada spustelėkite, norėdami matyti oro stebėjimo ir prognozės.

Norėdami pakeisti žemėlapį: spustelėkite ant žalios mygtukų su juodo kryžiaus žemyn,; žalią mygtuką su brūkšneliu, jei norite nutolinti; arba žalių rodyklių gretimoms žemėlapius.


METAR-TAF: